Maersk Magellan — 9V6751 — position and weather

sailwx.info

Track history (hours):
 
Tides and Currents Weather Stations Pressure Air Temp Water Temp Dewpoint Dewpoint Depression Visibility Wind Speed Wind Dir Waves Ship Positions

Maersk Magellan

Last reported at 2017-Nov-25 04:00 UTC. Time now 2017-Nov-25 04:20 UTC.
Position N 37°36' E 009°31'.

Length 183 m; draft 10.9 m.

Type: Ship. MMSI: 566549000.

Date/timePositionNaut miles runAvg speedWind from/ knotsBaromVisibWave heightAir tempDewpointWater temp
2017-Nov-25 04:00N 37°36' E 009°31'814.4
2017-Nov-25 03:26N 37°36' E 009°21'714.1
2017-Nov-25 02:56N 37°37' E 009°12'613.9
2017-Nov-25 02:30N 37°39' E 009°05'1113.6
2017-Nov-25 01:43N 37°39' E 008°51'313.4
2017-Nov-25 01:29N 37°39' E 008°48'813.2
2017-Nov-25 00:54N 37°39' E 008°38'15913.4
2017-Nov-24 13:02N 37°23' E 005°18'613.2
2017-Nov-24 12:36N 37°22' E 005°11'213.3
2017-Nov-24 12:26N 37°22' E 005°08'613.2
2017-Nov-24 12:00N 37°21' E 005°01'913.3
2017-Nov-24 11:20N 37°21' E 004°50'413.2
2017-Nov-24 11:00N 37°20' E 004°44'1513.4
2017-Nov-24 09:53N 37°19' E 004°26'513.6
2017-Nov-24 09:29N 37°18' E 004°19'613.3
2017-Nov-24 09:00N 37°17' E 004°11'713.3
2017-Nov-24 08:30N 37°16' E 004°03'713.4
2017-Nov-24 08:01N 37°15' E 003°55'713.4
2017-Nov-24 07:30N 37°15' E 003°46'913.4
2017-Nov-24 06:50N 37°14' E 003°35'1613.6
2017-Nov-24 05:38N 37°12' E 003°14'713.8
2017-Nov-24 05:06N 37°11' E 003°05'2213.5
2017-Nov-24 03:29N 37°08' E 002°38'613.4
2017-Nov-24 03:00N 37°06' E 002°30'713.2
2017-Nov-24 02:27N 37°05' E 002°21'613.1
2017-Nov-24 01:59N 37°04' E 002°14'613.2
2017-Nov-24 01:30N 37°03' E 002°06'713.4
2017-Nov-24 01:00N 37°01' E 001°58'713.4
2017-Nov-24 00:30N 36°60' E 001°50'813.5
2017-Nov-23 23:52N 36°58' E 001°39'513.7
2017-Nov-23 23:29N 36°57' E 001°33'613.6
2017-Nov-23 23:00N 36°56' E 001°25'713.3
2017-Nov-23 22:30N 36°55' E 001°16'1213.3
2017-Nov-23 21:35N 36°53' E 001°01'113.5
2017-Nov-23 21:30N 36°53' E 000°60'713.7
2017-Nov-23 21:00N 36°50' E 000°52'713.6
2017-Nov-23 20:30N 36°48' E 000°44'713.5
2017-Nov-23 20:00N 36°47' E 000°36'713.4
2017-Nov-23 19:30N 36°46' E 000°27'713.3
2017-Nov-23 19:00N 36°44' E 000°19'713.3
2017-Nov-23 18:27N 36°44' E 000°10'613.4
2017-Nov-23 18:00N 36°43' E 000°03'713.5
2017-Nov-23 17:29N 36°42' W 000°06'713.5
2017-Nov-23 16:57N 36°41' W 000°15'613.6
2017-Nov-23 16:30N 36°39' W 000°22'713.6
2017-Nov-23 16:00N 36°37' W 000°30'713.8
2017-Nov-23 15:30N 36°36' W 000°39'713.8
2017-Nov-23 15:00N 36°35' W 000°47'813.5
2017-Nov-23 14:23N 36°33' W 000°58'613.5
2017-Nov-23 13:57N 36°32' W 001°05'2113.3
2017-Nov-23 12:23N 36°28' W 001°30'613.4
2017-Nov-23 11:57N 36°27' W 001°37'17213.4
2017-Nov-22 23:08N 36°05' W 005°09'212.6
2017-Nov-22 23:00N 36°05' W 005°10'712.4
2017-Nov-22 22:28N 36°05' W 005°19'4 7.7
2017-Nov-22 22:01N 36°07' W 005°22'0 0.8
2017-Nov-22 21:28N 36°07' W 005°22'0 0.0
2017-Nov-22 20:58N 36°07' W 005°22'0 0.2
2017-Nov-22 20:28N 36°07' W 005°22'0 0.2
2017-Nov-22 19:58N 36°07' W 005°22'0 0.1
2017-Nov-22 19:19N 36°07' W 005°22'  
2017-Nov-16 14:56N 35°58' W 005°35'613.2
2017-Nov-16 14:30N 35°59' W 005°28'612.8
2017-Nov-16 14:00N 36°01' W 005°21'613.0
2017-Nov-16 13:30N 36°04' W 005°13'2 0.1
2017-Nov-15 15:16N 36°02' W 005°12'313.7
2017-Nov-15 15:00N 36°00' W 005°15'714.0
2017-Nov-15 14:30N 35°58' W 005°23'  
Track history (hours):
 
Tides and Currents Weather Stations Pressure Air Temp Water Temp Dewpoint Dewpoint Depression Visibility Wind Speed Wind Dir Waves Ship Positions

Maersk Magellan

Last reported at 2017-Nov-25 04:00 UTC. Time now 2017-Nov-25 04:20 UTC.
Position N 37°36' E 009°31'.

Length 183 m; draft 10.9 m.

Type: Ship. MMSI: 566549000.

Date/timePositionNaut miles runAvg speedWind from/ knotsBaromVisibWave heightAir tempDewpointWater temp
2017-Nov-25 04:00N 37°36' E 009°31'814.4
2017-Nov-25 03:26N 37°36' E 009°21'714.1
2017-Nov-25 02:56N 37°37' E 009°12'613.9
2017-Nov-25 02:30N 37°39' E 009°05'1113.6
2017-Nov-25 01:43N 37°39' E 008°51'313.4
2017-Nov-25 01:29N 37°39' E 008°48'813.2
2017-Nov-25 00:54N 37°39' E 008°38'15913.4
2017-Nov-24 13:02N 37°23' E 005°18'613.2
2017-Nov-24 12:36N 37°22' E 005°11'213.3
2017-Nov-24 12:26N 37°22' E 005°08'613.2
2017-Nov-24 12:00N 37°21' E 005°01'913.3
2017-Nov-24 11:20N 37°21' E 004°50'413.2
2017-Nov-24 11:00N 37°20' E 004°44'1513.4
2017-Nov-24 09:53N 37°19' E 004°26'513.6
2017-Nov-24 09:29N 37°18' E 004°19'613.3
2017-Nov-24 09:00N 37°17' E 004°11'713.3
2017-Nov-24 08:30N 37°16' E 004°03'713.4
2017-Nov-24 08:01N 37°15' E 003°55'713.4
2017-Nov-24 07:30N 37°15' E 003°46'913.4
2017-Nov-24 06:50N 37°14' E 003°35'1613.6
2017-Nov-24 05:38N 37°12' E 003°14'713.8
2017-Nov-24 05:06N 37°11' E 003°05'2213.5
2017-Nov-24 03:29N 37°08' E 002°38'613.4
2017-Nov-24 03:00N 37°06' E 002°30'713.2
2017-Nov-24 02:27N 37°05' E 002°21'613.1
2017-Nov-24 01:59N 37°04' E 002°14'613.2
2017-Nov-24 01:30N 37°03' E 002°06'713.4
2017-Nov-24 01:00N 37°01' E 001°58'713.4
2017-Nov-24 00:30N 36°60' E 001°50'813.5
2017-Nov-23 23:52N 36°58' E 001°39'513.7
2017-Nov-23 23:29N 36°57' E 001°33'613.6
2017-Nov-23 23:00N 36°56' E 001°25'713.3
2017-Nov-23 22:30N 36°55' E 001°16'1213.3
2017-Nov-23 21:35N 36°53' E 001°01'113.5
2017-Nov-23 21:30N 36°53' E 000°60'713.7
2017-Nov-23 21:00N 36°50' E 000°52'713.6
2017-Nov-23 20:30N 36°48' E 000°44'713.5
2017-Nov-23 20:00N 36°47' E 000°36'713.4
2017-Nov-23 19:30N 36°46' E 000°27'713.3
2017-Nov-23 19:00N 36°44' E 000°19'713.3
2017-Nov-23 18:27N 36°44' E 000°10'613.4
2017-Nov-23 18:00N 36°43' E 000°03'713.5
2017-Nov-23 17:29N 36°42' W 000°06'713.5
2017-Nov-23 16:57N 36°41' W 000°15'613.6
2017-Nov-23 16:30N 36°39' W 000°22'713.6
2017-Nov-23 16:00N 36°37' W 000°30'713.8
2017-Nov-23 15:30N 36°36' W 000°39'713.8
2017-Nov-23 15:00N 36°35' W 000°47'813.5
2017-Nov-23 14:23N 36°33' W 000°58'613.5
2017-Nov-23 13:57N 36°32' W 001°05'2113.3
2017-Nov-23 12:23N 36°28' W 001°30'613.4
2017-Nov-23 11:57N 36°27' W 001°37'17213.4
2017-Nov-22 23:08N 36°05' W 005°09'212.6
2017-Nov-22 23:00N 36°05' W 005°10'712.4
2017-Nov-22 22:28N 36°05' W 005°19'4 7.7
2017-Nov-22 22:01N 36°07' W 005°22'0 0.8
2017-Nov-22 21:28N 36°07' W 005°22'0 0.0
2017-Nov-22 20:58N 36°07' W 005°22'0 0.2
2017-Nov-22 20:28N 36°07' W 005°22'0 0.2
2017-Nov-22 19:58N 36°07' W 005°22'0 0.1
2017-Nov-22 19:19N 36°07' W 005°22'  
2017-Nov-16 14:56N 35°58' W 005°35'613.2
2017-Nov-16 14:30N 35°59' W 005°28'612.8
2017-Nov-16 14:00N 36°01' W 005°21'613.0
2017-Nov-16 13:30N 36°04' W 005°13'2 0.1
2017-Nov-15 15:16N 36°02' W 005°12'313.7
2017-Nov-15 15:00N 36°00' W 005°15'714.0
2017-Nov-15 14:30N 35°58' W 005°23'  

Dump ship's entire track history